Date,TemperatureHighF,TemperatureAvgF,TemperatureLowF,DewpointHighF,DewpointAvgF,DewpointLowF,HumidityHigh,HumidityAvg,HumidityLow,PressureMaxIn,PressureMinIn,WindSpeedMaxMPH,WindSpeedAvgMPH,GustSpeedMaxMPH,PrecipitationSumIn
2013-1-1,41.2,36.2,32.7,35.2,31.3,20.1,98,83,45,29.65,29.20,17,8,39,0.00
2013-1-2,37.6,35.3,32.7,29.4,24.9,18.2,78,66,54,29.59,29.29,14,8,31,0.00
2013-1-3,39.4,34.7,32.7,21.9,16.8,14.2,59,48,43,29.59,29.56,15,8,30,0.00
2013-1-4,33.8,30.6,28.9,18.6,12.9,10.7,65,48,44,29.83,29.59,14,7,22,0.00
2013-1-5,33.6,32.5,30.4,16.9,14.9,12.1,52,48,44,29.77,29.32,22,13,48,0.00
2013-1-6,33.6,31.5,29.5,19.1,14.7,12.0,59,49,46,29.38,29.06,20,11,39,0.00
2013-1-7,32.2,29.9,28.2,19.6,12.6,10.4,63,48,44,29.38,29.09,20,9,34,0.00
2013-1-8,28.6,22.5,13.6,12.0,9.8,8.1,79,59,47,30.00,29.38,10,3,22,0.00
2013-1-9,24.1,18.1,11.7,9.0,7.1,5.0,79,63,46,30.06,29.91,15,6,33,0.00
2013-1-10,25.4,21.4,15.8,13.1,9.1,5.4,71,59,47,30.15,29.94,14,5,28,0.00
2013-1-11,30.2,26.3,20.0,19.2,12.4,7.6,75,56,46,30.12,29.94,14,7,24,0.00
2013-1-12,36.9,30.9,25.3,32.5,22.0,12.5,91,71,47,30.12,29.88,15,9,31,0.00
2013-1-13,44.1,39.0,35.6,37.5,33.2,28.6,98,80,55,29.88,29.65,14,8,33,0.00
2013-1-14,45.3,39.7,34.0,37.9,30.5,15.2,97,71,45,29.91,29.50,14,7,32,0.00
2013-1-15,33.8,24.9,19.9,14.7,10.6,7.4,72,55,43,30.21,29.91,12,3,22,0.00
2013-1-16,27.7,23.3,19.4,20.8,13.3,6.9,89,68,44,30.18,29.65,16,3,28,0.00
2013-1-17,19.9,16.6,13.5,16.8,12.8,9.3,88,85,76,29.91,29.59,2,0,5,0.00
2013-1-18,13.8,3.7,-4.7,10.1,0.2,-8.1,85,85,85,30.21,29.93,2,0,7,0.00
2013-1-19,22.3,19.3,10.8,9.7,3.8,1.5,85,51,46,30.18,29.94,24,14,49,0.00
2013-1-20,29.5,24.4,20.8,16.2,9.0,3.6,74,52,46,29.94,29.85,22,10,38,0.00
2013-1-21,34.3,30.5,24.6,18.3,16.0,13.0,66,55,51,29.88,29.71,22,10,42,0.00
2013-1-22,35.4,33.8,32.2,19.5,18.0,15.9,54,52,50,29.71,29.44,18,11,36,0.00
2013-1-23,33.8,31.7,27.5,23.4,18.2,13.0,73,58,49,29.44,29.32,17,10,31,0.00
2013-1-24,35.8,29.9,25.3,30.5,17.6,11.6,92,60,50,29.50,29.38,10,4,20,0.00
2013-1-25,32.5,17.7,-4.5,31.3,9.1,-13.6,98,70,49,29.62,29.32,14,2,22,0.00
2013-1-26,8.1,-7.3,-15.5,-1.6,-16.3,-24.1,64,64,64,29.85,29.62,8,2,11,0.00
2013-1-27,1.6,-8.7,-20.4,-7.8,-17.6,-28.8,64,64,64,30.12,29.85,18,4,36,0.00
2013-1-28,7.9,3.5,-0.8,-1.8,-6.0,-10.0,64,64,64,30.15,29.85,28,16,46,0.00
2013-1-29,10.9,6.0,-0.1,1.1,-3.6,-9.4,64,64,64,29.85,29.74,28,12,47,0.00
2013-1-30,24.8,19.5,10.9,17.1,7.3,-2.6,80,59,47,29.85,29.65,17,9,30,0.00
2013-1-31,33.6,27.6,19.6,31.3,25.2,16.8,98,91,78,29.94,29.71,9,1,20,0.00
2013-2-1,33.6,26.6,12.0,24.6,16.5,10.1,98,68,50,30.00,29.68,20,9,37,0.00
2013-2-2,36.1,32.9,30.4,18.9,17.4,15.9,58,53,48,29.68,29.41,16,10,33,0.00
2013-2-3,35.8,33.1,30.9,28.4,20.9,16.4,84,61,52,29.50,29.26,14,6,29,0.00
2013-2-4,38.1,33.0,28.9,25.3,21.4,17.0,76,63,50,29.65,29.50,10,6,20,0.00
2013-2-5,33.6,27.3,17.6,16.7,12.2,9.0,72,53,42,29.65,29.50,9,4,18,0.00
2013-2-6,28.8,25.1,20.3,23.9,18.6,9.6,93,77,53,29.65,29.47,8,1,14,0.00
2013-2-7,28.0,24.2,20.5,23.4,12.6,9.1,93,62,47,29.62,29.32,17,8,31,0.00
2013-2-8,32.7,27.5,23.0,26.5,19.8,9.5,90,73,52,29.77,29.38,12,4,19,0.00
2013-2-9,40.3,34.8,30.6,30.7,19.4,14.1,74,53,44,29.74,29.06,16,9,35,0.00
2013-2-10,40.3,36.1,31.5,32.5,29.0,25.6,97,76,58,29.50,29.00,12,6,25,0.00
2013-2-11,31.5,25.1,13.3,30.7,20.0,10.1,98,82,54,29.77,29.50,0,0,0,0.00
2013-2-12,30.2,25.5,20.7,13.2,11.0,9.0,72,54,47,29.77,29.74,14,7,23,0.00
2013-2-13,32.0,28.2,25.2,14.7,11.7,8.9,55,50,46,29.83,29.68,15,9,29,0.00
2013-2-14,34.7,31.8,28.9,27.5,16.1,11.5,92,53,44,29.68,29.20,18,10,43,0.00
2013-2-15,31.3,27.4,21.2,29.0,24.2,11.3,98,88,64,29.88,29.50,8,1,13,0.00
2013-2-16,26.4,21.6,19.0,17.3,12.6,7.3,86,69,53,30.00,29.77,15,4,29,0.00
2013-2-17,25.9,23.9,16.7,22.1,14.0,7.7,89,66,50,29.77,29.56,18,6,28,0.00
2013-2-18,20.8,11.6,-3.6,11.7,3.4,-11.0,81,70,51,29.88,29.74,9,2,16,0.00
2013-2-19,16.5,7.7,-5.3,5.8,-3.8,-12.5,70,60,46,29.85,29.29,17,5,33,0.00
2013-2-20,30.2,20.5,13.8,11.9,7.1,-1.1,77,56,45,29.29,29.06,15,6,32,0.00
2013-2-21,32.0,22.0,16.3,11.2,6.5,3.5,62,51,41,29.26,29.12,10,4,18,0.00
2013-2-22,29.1,21.4,12.7,19.9,14.7,8.2,90,76,58,29.44,29.18,8,2,14,0.00
2013-2-23,28.0,22.0,10.4,17.8,8.4,6.1,86,57,43,29.41,29.15,17,8,33,0.00
2013-2-24,34.5,26.9,20.8,14.9,10.9,7.6,75,51,43,29.65,29.35,13,8,20,0.00
2013-2-25,35.8,28.1,23.0,13.8,9.1,5.9,49,44,40,29.68,29.59,20,11,36,0.00
2013-2-26,36.6,31.0,28.6,12.8,9.5,7.3,44,40,36,29.59,29.35,20,14,39,0.00
2013-2-27,35.4,29.6,27.5,13.5,9.2,7.2,45,42,40,29.35,29.20,24,14,44,0.00
2013-2-28,37.0,30.1,22.9,18.3,12.8,8.2,72,49,41,29.38,29.29,18,7,36,0.00
2013-3-1,34.3,25.5,16.5,25.8,19.1,11.5,89,77,59,29.91,29.38,5,0,8,0.00
2013-3-2,38.5,25.3,13.6,20.5,13.4,7.8,89,62,40,30.09,29.91,8,2,15,0.00
2013-3-3,36.9,30.0,25.5,14.3,9.9,6.9,47,43,39,30.42,30.09,14,9,29,0.00
2013-3-4,42.1,32.7,27.1,15.7,10.7,7.0,42,40,33,30.44,30.27,12,7,25,0.00
2013-3-5,41.2,29.5,20.5,18.9,13.7,8.2,78,53,39,30.27,29.97,9,1,19,0.00
2013-3-6,40.6,30.3,20.7,20.3,13.5,9.2,74,50,40,29.97,29.85,10,4,21,0.00
2013-3-7,42.3,34.7,31.2,21.1,14.5,11.5,50,43,39,29.85,29.53,17,10,31,0.00
2013-3-8,42.6,38.1,36.0,30.2,26.5,18.3,74,63,45,29.77,29.56,15,8,30,0.00
2013-3-9,42.1,36.4,32.4,30.0,21.7,16.3,91,56,42,30.09,29.77,13,4,21,0.00
2013-3-10,35.4,31.3,26.4,31.3,27.6,24.7,98,86,70,30.18,30.09,7,1,10,0.00
2013-3-11,39.7,29.0,18.3,27.1,18.1,8.2,98,69,37,30.27,30.18,17,5,36,0.00
2013-3-12,30.7,26.7,22.8,9.3,2.4,-1.0,41,35,31,30.24,30.03,26,17,60,0.00
2013-3-13,25.7,21.9,16.7,-0.3,-3.1,-6.9,34,33,31,30.03,29.80,25,17,56,0.00
2013-3-14,23.0,17.4,12.4,-0.5,-5.4,-10.1,37,35,34,29.88,29.77,26,18,55,0.00
2013-3-15,27.7,21.8,17.8,1.6,-2.5,-5.3,36,34,32,29.85,29.71,23,15,46,0.00
2013-3-16,33.1,22.3,15.3,7.4,-0.8,-7.1,51,36,32,30.06,29.83,18,7,32,0.00
2013-3-17,32.2,19.1,6.1,11.1,1.0,-10.3,59,45,38,30.12,30.03,6,2,9,0.00
2013-3-18,30.9,17.6,3.6,9.4,1.2,-7.6,59,49,37,30.03,29.85,7,2,9,0.00
2013-3-19,28.0,20.3,9.5,4.0,-0.3,-6.5,63,41,33,29.88,29.83,20,9,35,0.00
2013-3-20,28.2,17.9,6.4,2.0,-4.8,-10.9,44,36,31,29.97,29.83,16,7,31,0.00
2013-3-21,30.4,17.7,5.9,4.0,-3.2,-11.5,44,39,32,30.18,29.97,8,4,14,0.00
2013-3-22,22.1,22.1,22.1,1.9,1.9,1.9,41,41,41,30.12,30.12,3,3,7,0.00
2013-3-23,35.2,28.4,19.8,26.6,22.4,16.0,93,79,52,29.85,29.74,9,2,14,0.00
2013-3-24,26.8,22.6,17.4,21.4,17.0,13.7,92,79,61,29.85,29.56,5,1,7,0.00
2013-3-25,23.0,18.2,8.1,20.3,12.6,0.4,91,79,63,29.68,29.38,13,3,21,0.00
2013-3-26,21.2,7.7,-6.0,5.2,-4.9,-17.4,71,58,43,30.15,29.68,6,1,10,0.00
2013-3-27,25.9,10.2,-5.1,5.2,-6.9,-20.6,52,45,41,30.24,30.15,8,3,13,0.00
2013-3-28,35.8,24.5,12.2,14.0,6.1,-2.1,66,45,38,30.18,29.94,10,5,20,0.00
2013-3-29,39.9,33.4,29.3,28.1,15.0,8.3,70,47,41,29.94,29.85,15,8,29,0.00
2013-3-30,45.7,36.4,30.2,32.8,22.5,15.1,98,58,45,30.24,29.94,8,3,15,0.00
2013-3-31,46.6,36.5,28.2,33.1,25.7,17.7,98,67,42,30.24,30.09,7,4,13,0.00
2013-4-1,41.7,32.9,24.3,24.6,17.9,12.2,83,55,41,30.09,29.94,8,3,13,0.00
2013-4-2,45.1,32.9,21.2,20.4,15.9,8.9,82,52,34,30.15,30.00,7,3,13,0.00
2013-4-3,46.9,36.4,27.1,20.5,15.5,9.7,64,43,32,30.24,30.15,9,4,14,0.00
2013-4-4,38.5,33.1,26.1,16.0,8.8,2.4,64,36,29,30.21,29.77,18,11,43,0.00
2013-4-5,33.8,27.8,21.2,6.3,1.7,-3.4,34,32,31,29.77,29.50,20,11,37,0.00
2013-4-6,29.6,25.0,18.7,23.1,10.8,-0.2,90,57,33,29.50,29.44,16,5,22,0.00
2013-4-7,27.9,22.0,6.0,21.9,13.0,-0.8,91,69,47,29.80,29.50,8,2,14,0.00
2013-4-8,21.2,13.0,2.1,12.6,5.0,-4.6,81,70,59,29.80,29.29,6,1,9,0.00
2013-4-9,27.7,19.4,12.9,11.0,7.2,3.3,83,61,41,29.44,29.09,10,3,19,0.00
2013-4-10,25.3,16.4,6.3,5.9,0.1,-8.9,61,48,42,29.94,29.44,9,3,15,0.00
2013-4-11,30.2,15.9,1.9,7.4,-0.5,-9.8,57,49,36,30.09,29.94,7,2,10,0.00
2013-4-12,33.8,17.2,-2.7,8.4,-1.6,-15.3,54,44,33,30.09,30.03,15,5,29,0.00
2013-4-13,36.1,26.5,11.5,9.2,3.9,-5.7,48,38,32,30.39,30.09,15,5,33,0.00
2013-4-14,39.2,28.0,13.6,12.2,5.7,-3.4,56,39,31,30.50,30.39,9,4,20,0.00
2013-4-15,39.2,29.6,15.6,12.8,7.9,3.1,60,40,32,30.44,30.30,13,7,25,0.00
2013-4-16,39.6,30.1,21.2,16.1,10.3,6.1,56,43,37,30.30,30.09,13,5,25,0.00
2013-4-17,37.6,25.9,9.7,14.8,8.5,-0.7,66,48,38,30.15,30.06,7,2,13,0.00
2013-4-18,43.5,29.0,12.5,17.5,11.1,6.1,77,49,32,30.18,30.09,14,4,28,0.00
2013-4-19,45.9,35.2,25.7,18.7,11.8,5.2,53,38,31,30.33,30.12,15,6,29,0.00
2013-4-20,49.8,37.7,26.3,18.8,13.9,7.6,54,38,28,30.42,30.33,9,5,16,0.00
2013-4-21,47.4,37.1,25.7,24.8,16.7,8.6,65,44,33,30.42,30.33,8,5,16,0.00
2013-4-22,52.3,40.9,27.5,24.8,20.7,13.0,76,46,31,30.50,30.42,8,4,14,0.00
2013-4-23,41.9,38.2,35.2,36.9,28.7,17.6,95,70,44,30.48,30.33,9,3,15,0.00
2013-4-24,43.3,37.3,33.6,37.3,33.9,31.5,98,88,65,30.33,29.85,8,3,16,0.00
2013-4-25,44.0,36.4,29.5,32.7,14.5,4.1,97,44,29,29.85,29.74,21,9,42,0.04
2013-4-26,42.8,34.1,27.1,14.7,8.1,1.6,48,33,29,29.80,29.47,23,10,44,0.00
2013-4-27,41.3,35.3,29.1,13.2,9.9,6.6,39,35,31,29.91,29.50,18,11,36,0.00
2013-4-28,42.6,34.4,26.1,12.6,6.9,1.3,34,31,28,30.15,29.91,17,9,33,0.00
2013-4-29,47.1,36.2,26.1,17.8,11.3,3.8,50,36,29,30.18,30.12,9,5,16,0.00
2013-4-30,43.0,36.3,29.1,29.4,21.1,16.0,88,55,42,30.12,29.83,9,5,20,0.00
2013-5-1,49.7,39.4,27.0,25.8,19.1,12.2,92,46,30,29.83,29.56,13,6,24,0.00
2013-5-2,43.0,37.3,33.6,37.3,30.0,21.3,92,75,52,29.88,29.65,9,2,16,0.08
2013-5-3,45.5,41.2,35.6,38.6,33.0,24.5,97,74,45,29.94,29.80,12,4,24,0.08
2013-5-4,39.2,34.9,32.5,35.9,33.9,32.0,98,96,85,29.94,29.74,10,1,16,0.51
2013-5-5,50.7,39.9,32.0,36.3,28.0,21.0,98,67,35,30.12,29.94,8,2,13,0.00
2013-5-6,51.6,42.1,30.6,29.1,24.2,21.1,85,52,34,30.27,30.12,9,3,15,0.00
2013-5-7,49.8,40.8,28.8,29.6,24.9,20.3,87,56,39,30.30,30.24,6,2,10,0.00
2013-5-8,57.6,44.6,29.1,29.7,26.6,23.0,86,52,31,30.27,30.21,8,3,14,0.00
2013-5-9,55.6,47.1,35.4,29.4,25.2,20.0,63,42,36,30.30,30.24,10,4,20,0.00
2013-5-10,65.9,51.7,33.0,32.5,27.6,24.0,75,42,26,30.24,29.94,9,4,16,0.00
2013-5-11,64.4,52.3,37.4,36.0,31.7,27.2,70,46,34,29.97,29.59,9,3,13,0.00
2013-5-12,53.4,48.0,43.9,47.0,41.3,33.1,98,78,55,29.59,29.47,6,1,10,0.24
2013-5-13,50.8,44.9,38.5,43.7,37.4,29.7,98,77,48,29.50,29.41,8,2,15,0.12
2013-5-14,42.1,35.9,27.9,35.0,27.0,16.0,97,72,43,29.65,29.47,6,2,11,0.00
2013-5-15,51.8,41.1,31.3,35.6,27.4,20.9,98,63,38,29.77,29.65,12,4,21,0.00
2013-5-16,47.7,42.5,37.2,29.9,26.7,22.3,64,54,45,29.77,29.47,14,7,29,0.00
2013-5-17,42.8,36.7,32.0,37.7,33.9,27.7,98,90,55,29.53,29.38,9,2,20,0.28
2013-5-18,39.9,32.5,26.1,31.3,25.2,19.2,98,76,52,30.15,29.53,10,2,19,0.16
2013-5-19,47.5,38.2,23.5,25.7,20.4,16.5,89,51,36,30.59,30.15,7,2,12,0.08
2013-5-20,55.9,43.6,26.8,25.8,21.9,18.3,77,45,28,30.62,30.50,9,3,16,0.00
2013-5-21,58.6,45.5,27.5,30.5,25.3,21.4,86,48,29,30.56,30.27,9,3,14,0.00
2013-5-22,61.7,48.0,31.6,37.7,30.1,22.7,83,53,32,30.27,30.09,10,4,18,0.00
2013-5-23,60.3,50.0,39.7,44.3,38.5,35.5,98,67,43,30.15,30.09,9,2,13,0.00
2013-5-24,70.3,56.6,40.5,40.1,36.3,30.0,85,51,30,30.09,29.97,8,3,14,0.00
2013-5-25,71.1,57.6,38.5,37.3,31.2,22.3,77,40,23,30.00,29.88,12,4,20,0.00
2013-5-26,67.3,52.9,34.2,37.8,32.2,22.4,78,47,29,29.94,29.85,10,3,16,0.00
2013-5-27,77.1,62.2,41.9,42.3,38.0,34.7,85,45,23,29.91,29.77,7,3,13,0.00
2013-5-28,79.2,61.5,39.5,45.0,39.2,31.7,91,49,25,29.80,29.65,7,2,11,0.00
2013-5-29,80.6,66.5,48.9,44.9,38.5,31.9,64,38,23,29.77,29.68,8,3,12,0.00
2013-5-30,73.0,60.8,42.8,42.7,40.4,37.5,89,50,33,30.03,29.77,10,4,16,0.00
2013-5-31,66.3,55.1,40.3,46.5,42.3,39.2,97,65,43,30.18,30.03,9,4,16,0.00
2013-6-1,58.1,52.3,47.1,46.4,43.6,41.5,94,73,55,30.21,30.15,8,3,11,0.00
2013-6-2,53.4,48.6,45.9,47.9,45.0,38.9,98,88,65,30.24,30.09,8,1,13,0.31
2013-6-3,59.4,51.2,42.4,41.2,36.0,32.1,91,58,39,30.09,29.77,9,3,15,0.00
2013-6-4,61.7,52.6,45.1,42.7,35.7,29.4,89,55,36,29.85,29.68,10,4,19,0.00
2013-6-5,65.7,52.1,34.9,38.6,33.3,28.2,94,52,33,29.97,29.85,8,3,20,0.00
2013-6-6,68.5,55.2,36.3,39.0,34.3,29.4,85,48,32,29.97,29.68,9,3,14,0.00
2013-6-7,73.8,56.5,39.6,49.2,40.3,35.1,91,58,33,29.94,29.71,7,2,14,0.00
2013-6-8,73.2,60.6,43.0,47.6,42.2,34.9,96,55,33,30.12,29.94,8,2,15,0.00
2013-6-9,77.2,63.7,46.0,47.2,43.0,38.5,91,52,25,30.21,30.12,12,3,20,0.00
2013-6-10,75.0,62.0,44.8,46.9,42.5,37.6,91,53,32,30.24,30.12,10,3,21,0.00
2013-6-11,75.8,64.5,51.4,46.7,42.8,39.1,80,48,28,30.15,29.97,9,3,22,0.00
2013-6-12,77.3,64.2,49.6,43.5,38.9,33.1,78,42,28,30.03,29.94,8,3,13,0.00
2013-6-13,71.4,61.4,47.7,49.2,41.3,34.5,77,50,34,30.18,29.97,12,4,16,0.00
2013-6-14,73.2,60.4,42.4,48.4,43.3,39.3,98,58,33,30.27,30.18,9,3,15,0.00
2013-6-15,75.0,61.9,43.7,49.5,46.5,42.6,98,61,38,30.33,30.21,9,2,14,0.08
2013-6-16,82.3,67.6,50.2,52.5,48.6,41.4,96,56,32,30.27,30.12,6,2,11,0.00
2013-6-17,85.5,70.2,52.7,54.6,50.0,42.7,92,52,31,30.15,29.91,7,2,11,0.00
2013-6-18,80.1,72.5,59.5,53.2,39.1,33.9,78,31,23,29.91,29.80,16,8,33,0.00
2013-6-19,73.4,64.4,53.1,46.7,41.1,37.0,74,44,31,30.00,29.91,12,4,21,0.00
2013-6-20,75.0,62.1,45.1,49.8,45.2,40.4,94,57,35,30.03,29.94,14,3,29,0.00
2013-6-21,61.5,54.4,47.1,48.1,44.8,38.5,94,72,52,30.09,30.03,10,4,19,0.00
2013-6-22,71.1,57.0,38.9,50.2,41.2,36.8,98,61,31,30.09,29.80,7,2,14,0.00
2013-6-23,70.9,60.6,46.9,45.2,41.2,37.8,74,50,36,29.80,29.65,9,3,16,0.00
2013-6-24,76.8,63.4,50.4,51.1,46.1,38.1,80,55,37,29.71,29.62,9,2,17,0.00
2013-6-25,78.6,65.1,48.9,52.9,49.4,44.0,98,61,39,29.65,29.59,7,2,13,0.00
2013-6-26,82.0,67.9,53.2,56.1,49.5,44.9,95,56,32,29.88,29.65,8,2,16,0.00
2013-6-27,72.0,62.4,51.8,55.4,51.2,47.2,89,68,49,30.09,29.88,10,3,16,0.00
2013-6-28,62.5,58.1,55.8,55.3,53.1,50.0,92,84,73,30.21,30.09,6,2,9,0.00
2013-6-29,67.6,59.6,54.0,55.4,52.7,50.8,97,79,57,30.15,30.00,6,1,10,0.00
2013-6-30,61.7,57.8,54.1,55.1,50.9,48.0,93,78,67,30.06,29.85,9,2,13,0.00
2013-7-1,59.9,54.5,51.4,52.3,46.7,35.1,98,77,49,29.85,29.62,8,2,21,0.00
2013-7-2,63.4,56.9,49.3,47.4,42.2,34.7,71,58,47,29.91,29.62,9,4,16,0.00
2013-7-3,61.9,54.9,48.9,49.3,43.3,36.4,96,68,44,30.03,29.91,7,2,14,0.00
2013-7-4,57.6,54.0,49.3,50.7,44.8,36.4,89,72,49,30.06,30.00,6,2,16,0.00
2013-7-5,65.7,56.2,49.1,49.0,43.2,38.7,94,64,40,30.09,30.03,7,2,13,0.00
2013-7-6,62.8,56.2,50.2,45.9,41.8,38.4,82,60,43,30.06,29.80,9,4,16,0.00
2013-7-7,66.9,58.0,50.5,52.6,43.3,38.5,92,60,38,29.80,29.59,9,4,21,0.04
2013-7-8,59.2,52.3,49.6,50.6,48.5,43.2,98,88,56,29.85,29.68,6,1,10,0.16
2013-7-9,66.0,57.2,49.6,53.8,48.6,41.4,98,75,45,30.06,29.85,9,3,20,0.12
2013-7-10,71.4,59.5,50.4,58.4,51.5,45.1,98,77,43,30.06,29.94,6,1,10,0.12
2013-7-11,77.4,64.4,55.0,54.4,49.5,43.6,94,62,34,29.97,29.91,7,2,13,0.00
2013-7-12,78.3,64.5,50.2,58.8,49.4,42.5,95,62,37,29.97,29.91,9,2,15,0.04
2013-7-13,75.2,65.5,54.3,59.5,52.5,47.4,98,67,39,30.18,29.97,9,3,16,0.00
2013-7-14,69.3,61.5,49.5,55.8,51.3,48.0,97,71,51,30.30,30.18,9,3,16,0.00
2013-7-15,62.4,58.7,55.4,53.9,50.7,47.4,90,75,67,30.36,30.27,7,2,11,0.00
2013-7-16,67.6,60.9,54.7,56.0,53.4,50.9,98,78,56,30.27,30.12,8,1,13,0.00
2013-7-17,69.4,63.2,56.7,57.6,54.4,51.3,90,74,57,30.15,30.09,8,1,10,0.00
2013-7-18,74.5,64.3,55.8,60.7,55.8,52.8,96,75,49,30.18,30.09,7,1,10,0.00
2013-7-19,72.3,65.2,59.0,57.8,53.2,50.6,91,67,47,30.18,30.12,10,3,16,0.00
2013-7-20,70.5,62.3,54.9,55.1,51.1,42.3,96,70,38,30.15,30.03,13,4,21,0.00
2013-7-21,76.1,64.4,50.0,52.8,46.3,40.7,98,58,31,30.06,29.91,12,3,23,0.00
2013-7-22,79.2,68.7,57.9,49.0,44.4,41.6,63,42,33,30.09,29.97,12,5,21,0.04
2013-7-23,79.8,65.9,51.3,53.6,49.7,46.0,92,60,35,30.12,30.03,9,2,14,0.00
2013-7-24,80.2,67.8,51.4,55.6,51.3,47.1,98,59,36,30.06,29.91,8,2,15,0.00
2013-7-25,76.8,66.0,59.2,60.5,54.6,47.9,96,69,42,30.09,29.97,9,2,16,0.08
2013-7-26,71.9,63.8,57.2,59.5,56.8,54.6,97,79,60,30.30,30.06,9,3,14,0.00
2013-7-27,69.8,64.3,58.8,58.9,56.5,53.8,89,76,64,30.36,30.27,6,1,10,0.00
2013-7-28,75.9,67.0,58.8,60.7,56.4,51.1,85,70,53,30.30,30.15,8,2,13,0.00
2013-7-29,76.1,65.0,52.7,59.8,56.0,51.3,98,74,52,30.21,30.12,8,2,13,0.00
2013-7-30,75.9,65.8,53.7,58.6,56.2,52.3,98,73,47,30.21,30.15,8,2,12,0.00
2013-7-31,74.1,64.1,54.0,58.5,55.1,52.8,98,75,52,30.24,30.12,8,2,14,0.00
2013-8-1,70.7,63.7,54.0,57.2,54.6,51.3,95,73,58,30.15,29.97,7,2,13,0.00
2013-8-2,73.0,61.0,47.5,52.1,47.2,42.7,97,65,34,30.00,29.80,10,2,19,0.00
2013-8-3,69.7,63.9,60.3,44.6,42.2,40.0,54,45,37,29.88,29.77,13,6,26,0.00
2013-8-4,68.2,61.2,54.1,56.3,47.5,41.7,91,62,44,29.97,29.88,6,2,11,0.00
2013-8-5,67.6,59.8,52.2,51.6,47.1,42.9,94,65,44,29.97,29.97,9,3,17,0.00
2013-8-6,66.6,60.8,55.8,48.2,44.4,41.0,71,56,40,29.97,29.91,10,5,21,0.00
2013-8-7,64.8,58.1,54.5,56.8,48.3,43.6,90,71,48,29.91,29.74,9,3,14,0.00
2013-8-8,69.4,59.2,53.1,54.4,47.8,44.9,92,67,44,29.83,29.74,15,4,21,0.00
2013-8-9,64.3,55.3,50.0,50.3,45.6,38.2,97,72,40,29.83,29.71,13,4,29,0.12
2013-8-10,63.7,55.5,50.5,56.1,51.1,44.6,98,86,64,30.00,29.77,6,2,10,0.43
2013-8-11,60.8,56.3,51.3,56.8,53.9,49.8,98,92,76,30.03,30.00,5,0,8,0.08
2013-8-12,68.9,61.0,54.5,60.2,56.6,53.9,98,86,64,30.06,30.00,6,1,10,0.04
2013-8-13,70.9,61.7,55.9,57.2,53.9,50.5,94,77,58,30.03,29.94,12,3,18,0.00
2013-8-14,61.0,57.1,55.0,53.5,51.2,49.0,94,81,67,30.03,29.88,6,1,9,0.00
2013-8-15,63.7,57.3,51.8,51.9,50.1,47.7,95,78,59,29.91,29.77,6,1,8,0.00
2013-8-16,63.0,55.2,46.4,55.2,49.3,43.7,98,82,50,29.77,29.68,6,1,11,0.00
2013-8-17,67.8,58.4,51.8,54.6,50.4,44.6,98,77,49,29.68,29.53,7,2,10,0.04
2013-8-18,60.6,55.0,51.1,55.5,53.0,48.0,98,93,74,29.68,29.50,5,1,11,0.35
2013-8-19,54.5,52.9,50.2,53.5,48.7,42.8,98,86,66,29.77,29.68,7,2,14,0.39
2013-8-20,56.7,53.1,50.0,54.4,51.5,48.0,98,94,78,29.85,29.77,5,1,9,0.20
2013-8-21,55.9,51.9,48.6,52.7,49.6,46.9,98,92,72,29.88,29.77,7,2,13,0.39
2013-8-22,55.9,52.4,49.8,52.1,49.9,46.9,98,91,74,29.80,29.71,7,2,14,0.31
2013-8-23,63.5,54.8,50.2,55.6,51.7,49.6,98,90,67,29.71,29.53,10,2,16,0.51
2013-8-24,65.1,51.6,40.6,53.1,47.2,40.1,98,86,59,29.71,29.56,8,2,16,0.00
2013-8-25,64.4,53.7,41.0,50.0,41.4,33.0,95,65,45,29.74,29.68,10,3,24,0.00
2013-8-26,65.1,53.4,43.4,49.1,43.3,38.4,98,71,44,29.77,29.74,6,2,11,0.00
2013-8-27,63.3,53.8,44.4,53.7,47.1,41.9,98,80,47,29.80,29.74,8,2,14,0.24
2013-8-28,61.0,54.1,50.2,53.8,50.7,47.0,98,89,63,29.77,29.62,5,1,8,0.24
2013-8-29,58.1,53.7,50.4,52.4,49.1,46.1,98,85,67,29.88,29.56,7,2,14,0.00
2013-8-30,56.7,52.6,49.5,52.7,50.4,47.9,98,92,83,29.97,29.88,3,0,7,0.04
2013-8-31,54.3,51.2,48.2,52.8,50.3,47.7,98,97,91,29.94,29.85,5,0,10,0.12
2013-9-1,55.2,52.0,48.9,53.4,50.5,48.4,98,95,81,29.85,29.74,7,1,13,0.31
2013-9-2,59.7,54.2,51.4,53.4,49.4,42.4,98,85,53,29.74,29.53,10,5,22,0.47
2013-9-3,67.0,57.5,53.2,51.0,44.1,39.2,85,62,42,29.56,29.29,14,6,31,0.00
2013-9-4,56.5,51.9,48.4,52.0,48.5,39.8,98,89,56,29.80,29.41,8,2,15,0.39
2013-9-5,59.2,49.5,42.5,48.3,43.1,38.2,98,81,46,30.03,29.80,7,2,14,0.00
2013-9-6,53.4,48.1,41.5,45.8,41.5,38.1,98,78,65,30.03,29.44,16,7,38,0.12
2013-9-7,59.4,54.3,49.1,53.8,47.9,42.6,97,80,63,29.65,29.50,6,2,13,0.00
2013-9-8,56.3,51.4,45.9,53.3,50.0,45.3,98,95,79,29.88,29.44,13,2,22,0.35
2013-9-9,60.4,52.0,45.1,47.1,42.2,38.0,98,71,45,29.88,29.68,14,6,32,0.00
2013-9-10,55.6,52.4,49.6,51.3,46.4,43.8,94,80,69,29.77,29.71,9,4,18,0.08
2013-9-11,52.7,49.8,47.7,50.8,48.5,44.3,98,95,74,29.91,29.59,7,1,13,0.67
2013-9-12,59.2,50.5,42.6,47.3,43.9,39.7,98,80,52,30.00,29.91,7,2,13,0.04
2013-9-13,61.0,51.6,46.2,49.0,44.7,38.7,98,80,45,29.97,29.91,8,4,18,0.08
2013-9-15,59.5,51.3,41.2,45.4,42.2,39.5,98,74,48,29.77,29.71,7,2,11,0.08
2013-9-16,54.5,43.7,32.9,45.1,38.0,32.4,98,83,49,29.71,29.50,7,1,10,0.00
2013-9-17,50.2,46.4,44.1,44.6,42.1,37.1,97,85,68,29.53,29.47,6,2,10,0.00
2013-9-18,50.0,46.2,43.5,47.1,43.9,40.7,98,92,73,29.62,29.53,6,0,11,0.24
2013-9-19,49.1,42.9,32.2,44.3,38.4,28.9,98,86,46,29.59,29.38,8,1,13,0.20
2013-9-20,44.6,33.7,25.2,29.7,27.1,23.9,98,79,50,29.41,29.06,8,1,13,0.00
2013-9-21,48.2,40.6,28.8,34.4,28.0,22.2,98,62,43,29.06,28.91,12,4,23,0.00
2013-9-22,42.3,38.2,34.9,37.0,34.2,29.5,98,86,67,29.26,28.94,7,1,11,0.04
2013-9-23,39.4,35.6,32.6,36.9,34.0,30.9,98,94,81,29.77,29.26,7,1,11,0.04
2013-9-24,46.0,37.9,29.7,38.7,32.8,27.9,98,84,50,29.97,29.77,12,2,22,0.00
2013-9-25,51.6,47.5,41.2,44.5,37.7,27.8,96,69,48,29.77,29.44,16,6,35,0.20
2013-9-26,48.7,45.2,42.4,46.6,43.3,36.8,98,93,71,29.62,29.26,6,1,14,0.20
2013-9-27,55.4,46.9,37.6,39.5,36.7,32.4,96,69,44,29.26,29.00,8,3,16,0.00
2013-9-28,48.0,35.7,30.4,41.5,33.8,29.9,98,93,61,29.15,29.09,5,0,11,0.00
2013-10-6,44.1,39.4,35.8,43.5,38.9,35.3,98,98,97,29.71,29.65,3,0,7,0.16
2013-10-7,49.5,42.1,36.9,43.4,36.3,26.6,98,82,50,29.85,29.71,8,2,16,0.24
2013-10-8,48.0,42.9,39.8,40.7,34.7,26.6,98,75,48,29.71,29.03,14,7,32,0.43
2013-10-9,50.0,40.6,30.0,39.2,34.5,27.0,98,81,44,29.71,29.06,10,4,16,0.00
2013-10-10,43.5,37.2,27.0,30.4,25.6,21.2,98,65,44,29.74,29.68,13,5,19,0.00
2013-10-11,48.9,43.6,38.5,35.6,29.6,23.9,79,58,49,29.83,29.71,12,6,20,0.04
2013-10-12,53.1,49.1,43.5,32.3,30.0,27.4,59,48,38,29.83,29.65,15,7,30,0.00
2013-10-13,51.6,43.6,35.6,41.6,36.6,29.1,98,79,43,29.68,29.44,17,8,35,0.31
2013-10-14,52.2,44.4,38.7,36.5,33.5,29.7,92,68,44,30.00,29.68,9,4,16,0.00
2013-10-15,50.4,46.4,43.3,42.1,35.7,30.5,86,66,51,30.09,30.00,13,6,30,0.12
2013-10-16,55.2,52.5,50.2,38.4,34.2,32.2,63,50,45,30.18,30.09,15,9,30,0.12
2013-10-17,56.7,50.4,44.8,41.3,34.0,29.0,85,55,38,30.09,29.77,14,7,28,0.04
2013-10-18,54.5,51.0,48.6,38.6,30.6,26.3,60,46,39,29.77,29.62,17,8,35,0.00
2013-10-19,51.8,49.2,46.4,37.6,31.4,26.8,69,51,40,29.62,29.32,18,9,35,0.00
2013-10-20,50.7,46.4,41.9,33.0,28.2,25.1,62,49,40,29.91,29.62,13,6,22,0.00
2013-10-21,47.1,41.7,36.1,30.7,26.3,22.3,63,54,45,30.00,29.88,10,5,19,0.00
2013-10-22,46.9,38.2,28.4,33.3,28.0,19.3,91,68,47,30.12,29.97,8,3,15,0.00
2013-10-23,33.2,26.4,20.5,31.7,23.3,18.2,98,89,62,30.00,29.71,6,1,10,0.00
2013-10-24,44.4,35.5,19.9,23.9,19.0,15.8,96,54,40,29.77,29.62,18,8,35,0.00
2013-10-25,48.9,40.7,32.0,33.2,26.2,21.4,88,58,43,30.09,29.68,10,3,20,0.00
2013-10-26,46.9,35.5,25.5,31.5,25.5,20.2,98,71,40,30.39,30.09,17,4,35,0.00
2013-10-27,54.5,42.4,39.1,41.6,29.7,21.3,91,63,41,30.21,29.59,21,10,44,0.24
2013-10-28,56.3,48.1,40.8,45.9,39.2,33.3,98,75,45,29.59,29.15,23,8,49,0.39
2013-10-29,50.9,41.9,34.3,41.2,32.5,24.8,98,72,43,29.50,29.29,9,2,18,0.00
2013-10-30,50.3,44.6,42.3,33.4,27.1,24.2,60,50,42,29.32,29.03,14,7,24,0.00
2013-10-31,43.0,39.1,36.5,39.9,34.4,27.4,98,84,54,29.53,29.09,7,1,13,0.04
2013-11-1,42.1,38.7,35.8,39.8,37.7,35.3,98,96,86,29.91,29.53,3,0,5,0.08
2013-11-2,40.3,37.3,33.8,38.7,33.6,23.9,98,87,60,29.91,29.74,8,1,14,0.04
2013-11-3,40.6,38.6,35.8,23.9,21.2,19.7,60,50,45,29.77,29.50,13,7,24,0.00
2013-11-4,41.0,37.8,35.2,28.0,21.7,19.1,74,52,44,29.50,29.18,16,8,28,0.00
2013-11-5,38.1,33.0,25.2,31.9,25.8,16.3,95,76,50,29.85,29.26,5,0,8,0.00
2013-11-6,30.9,22.9,16.5,22.1,16.2,11.4,94,77,50,29.91,29.80,12,2,19,0.00
2013-11-7,27.9,25.2,21.9,11.4,7.1,4.3,50,46,43,29.80,29.62,18,12,38,0.00
2013-11-8,28.0,18.4,10.2,12.1,6.2,3.0,80,60,45,30.09,29.74,10,2,22,0.00
2013-11-9,30.6,24.5,12.4,28.0,11.7,4.6,90,59,43,30.09,29.85,12,5,20,0.00
2013-11-10,38.3,34.2,29.3,35.6,32.7,28.0,98,94,85,29.85,29.56,12,4,21,0.43
2013-11-11,31.2,28.6,26.4,29.5,24.0,12.8,98,84,55,29.85,29.68,14,1,26,0.31
2013-11-12,26.4,15.8,6.3,13.1,6.9,0.0,91,68,53,29.97,29.85,12,3,24,0.00
2013-11-13,29.8,21.3,14.7,18.6,12.3,6.8,92,69,48,30.06,29.94,6,1,11,0.00
2013-11-14,31.1,26.6,18.7,30.6,24.2,15.3,98,91,68,29.94,29.71,7,2,16,0.00
2013-11-15,25.7,17.4,8.6,20.7,13.8,4.8,97,85,78,29.88,29.77,7,1,13,0.00
2013-11-16,22.8,13.3,2.8,15.9,8.9,-2.5,93,83,62,30.00,29.80,6,1,12,0.00
2013-11-17,17.6,13.5,10.0,8.2,-2.5,-8.0,78,49,41,30.03,29.97,18,10,34,0.00
2013-11-18,11.9,3.2,-4.7,-6.3,-14.3,-21.6,43,43,43,30.00,29.94,12,2,20,0.00
2013-11-19,6.8,-2.2,-10.1,-11.6,-19.2,-26.5,43,43,43,29.94,29.83,7,2,14,0.00
2013-11-20,7.0,2.7,-2.5,-10.8,-14.8,-19.6,43,43,43,29.88,29.77,18,10,40,0.00
2013-11-21,10.6,6.3,1.4,-7.7,-11.5,-16.0,43,43,43,29.80,29.06,31,18,60,0.00
2013-11-22,26.4,21.1,9.1,25.7,13.8,-9.1,97,75,43,29.32,28.94,25,10,51,0.00
2013-11-23,23.5,17.5,6.4,19.3,11.3,3.1,91,77,59,29.80,29.29,10,4,16,0.00
2013-11-24,31.1,27.3,19.8,21.0,17.7,11.5,90,67,58,29.85,29.80,12,6,18,0.00
2013-11-25,30.7,24.9,19.8,21.5,18.1,14.6,94,76,53,29.83,29.53,8,2,16,0.00
2013-11-26,28.4,25.0,20.3,25.7,23.1,18.3,97,92,83,29.68,29.59,3,0,5,0.00
2013-11-27,27.7,26.2,18.6,27.2,23.7,4.7,98,91,52,29.68,29.47,12,2,20,0.00
2013-11-28,19.2,11.2,-1.8,10.5,5.3,-5.7,83,78,51,29.80,29.50,8,1,15,0.00
2013-11-29,1.8,-8.0,-14.3,-2.2,-11.8,-18.1,83,83,83,29.94,29.80,8,1,13,0.00
2013-11-30,13.6,2.1,-12.8,9.4,-1.8,-16.7,83,83,83,30.15,29.91,21,7,39,0.00
2013-12-1,7.3,-4.6,-10.3,2.9,-8.4,-14.0,83,83,83,30.39,30.15,2,0,10,0.00
2013-12-2,8.5,-1.6,-8.3,4.3,-5.5,-12.1,83,83,83,30.50,30.33,0,0,0,0.00
2013-12-3,19.2,7.4,-0.6,10.9,2.7,-4.5,83,81,59,30.50,30.33,3,0,7,0.00
2013-12-4,22.8,18.4,12.4,17.0,12.2,7.1,82,76,62,30.33,30.21,2,0,6,0.00
2013-12-5,30.0,27.3,22.8,29.3,24.6,17.0,98,90,78,30.33,30.18,5,0,7,0.00
2013-12-6,32.9,31.7,29.8,32.4,31.2,29.3,98,98,98,30.33,30.30,0,0,3,0.00
2013-12-7,34.0,32.5,31.3,33.5,32.0,30.8,98,98,98,30.30,30.24,1,0,7,0.00
2013-12-8,31.3,27.6,23.9,30.8,27.1,23.4,98,98,98,30.27,30.15,0,0,0,0.00
2013-12-9,29.7,27.0,24.3,28.5,26.2,23.8,98,97,91,30.18,30.00,0,0,0,0.00
2013-12-10,29.8,27.5,26.1,27.0,23.4,9.9,98,87,44,30.00,29.56,0,0,0,0.00
2013-12-11,29.3,22.2,15.5,9.9,1.7,-5.1,44,40,38,29.56,29.20,31,17,56,0.00
2013-12-12,16.7,14.6,9.1,4.2,-2.1,-5.3,65,48,39,29.29,29.18,26,9,52,0.00
2013-12-13,20.1,15.1,11.5,11.2,-1.2,-5.8,84,48,44,29.29,28.64,25,12,43,0.00
2013-12-14,18.7,16.5,13.3,15.2,10.0,1.4,90,77,48,28.91,28.64,12,1,22,0.00
2013-12-15,16.0,13.2,10.4,13.0,9.2,5.5,89,84,80,29.71,28.91,0,0,5,0.00
2013-12-16,10.4,1.2,-6.3,5.5,-3.6,-10.9,80,80,80,29.88,29.71,0,0,5,0.00
2013-12-17,-5.3,-13.8,-18.6,-9.8,-18.2,-22.9,80,80,80,30.18,29.88,3,0,8,0.00
2013-12-18,11.3,-4.5,-16.1,6.3,-9.1,-20.4,80,80,80,30.18,29.62,16,5,31,0.00
2013-12-19,18.5,10.3,5.0,8.9,-1.9,-6.9,80,58,49,29.62,29.44,15,3,35,0.00
2013-12-20,26.8,18.7,9.3,21.0,5.9,-3.6,92,58,45,29.50,29.44,14,4,23,0.00
2013-12-21,31.1,27.1,23.0,23.8,14.3,9.3,85,59,51,29.47,29.29,14,7,24,0.00
2013-12-22,30.2,26.3,18.1,28.6,22.7,13.0,98,87,61,29.47,29.15,10,4,16,0.00
2013-12-23,18.9,1.9,-9.6,13.3,-7.9,-18.8,81,63,53,29.91,29.50,9,2,18,0.00
2013-12-24,8.6,4.0,-9.8,-1.4,-5.9,-19.0,63,63,63,29.94,29.56,14,6,26,0.00
2013-12-25,8.0,-11.6,-16.8,-4.7,-20.7,-25.6,63,63,63,29.56,29.50,5,0,9,0.00
2013-12-26,7.9,1.0,-10.7,-2.1,-8.7,-19.8,63,63,63,29.56,29.44,2,0,5,0.00
2013-12-27,15.6,4.8,-7.6,3.5,-7.0,-17.0,63,58,44,29.74,29.56,22,6,39,0.00
2013-12-28,21.2,18.6,12.9,9.3,4.1,-2.6,71,53,43,29.71,29.65,12,4,21,0.00
2013-12-29,25.7,19.4,8.1,13.8,8.0,-0.6,83,62,50,29.71,29.44,16,5,33,0.00
2013-12-30,26.6,22.3,13.1,13.4,9.0,5.8,83,58,45,29.44,29.20,16,7,30,0.00
2013-12-31,25.5,23.0,20.1,12.2,5.4,2.6,57,46,44,29.41,29.06,23,15,47,0.00
2014-1-1,30.6,27.5,24.1,18.5,13.8,11.7,72,56,51,29.24,28.94,18,9,35,0.00
2014-1-2,28.2,26.4,23.7,24.3,19.4,12.3,92,75,53,29.77,29.24,9,2,15,0.00